createdAt,value
2023-02-14T00:02:14.654Z,39.20
2023-02-14T00:04:47.087Z,37.30
2023-02-14T00:07:15.878Z,35.70
2023-02-14T00:09:45.681Z,33.43
2023-02-14T00:12:14.047Z,33.07
2023-02-14T00:14:59.829Z,34.87
2023-02-14T00:17:28.161Z,34.93
2023-02-14T00:19:56.486Z,34.23
2023-02-14T00:22:25.000Z,36.03
2023-02-14T00:24:54.741Z,32.37
2023-02-14T00:27:23.045Z,32.70
2023-02-14T00:29:51.475Z,32.43
2023-02-14T00:32:19.843Z,31.07
2023-02-14T00:34:48.231Z,34.27
2023-02-14T00:37:16.622Z,32.73
2023-02-14T00:39:45.150Z,31.90
2023-02-14T00:42:14.943Z,32.50
2023-02-14T00:44:46.517Z,33.77
2023-02-14T00:47:14.872Z,33.00
2023-02-14T00:49:43.347Z,33.33
2023-02-14T00:52:11.881Z,34.20
2023-02-14T00:54:40.106Z,32.80
2023-02-14T00:57:08.572Z,33.13
2023-02-14T00:59:39.326Z,32.83
2023-02-14T01:02:07.717Z,33.23
2023-02-14T01:04:36.251Z,31.57
2023-02-14T01:07:04.632Z,33.30
2023-02-14T01:09:33.230Z,31.57
2023-02-14T01:12:03.609Z,33.17
2023-02-14T01:14:32.081Z,32.50
2023-02-14T01:17:01.967Z,32.17
2023-02-14T01:19:30.806Z,33.50
2023-02-14T01:21:59.152Z,32.93
2023-02-14T01:24:27.583Z,33.70
2023-02-14T01:26:55.981Z,32.53
2023-02-14T01:29:24.296Z,32.30
2023-02-14T01:31:53.978Z,32.67
2023-02-14T01:34:23.752Z,30.93
2023-02-14T01:36:52.142Z,32.07
2023-02-14T01:39:20.540Z,30.17
2023-02-14T01:41:49.640Z,31.37
2023-02-14T01:44:56.842Z,29.00
2023-02-14T01:47:27.326Z,31.17
2023-02-14T01:50:00.452Z,30.27
2023-02-14T01:52:33.250Z,31.30
2023-02-14T01:55:06.296Z,30.50
2023-02-14T01:57:39.689Z,30.70
2023-02-14T02:00:38.714Z,30.63
2023-02-14T02:03:09.263Z,31.87
2023-02-14T02:05:44.543Z,32.67
2023-02-14T02:08:16.627Z,30.50
2023-02-14T02:10:45.970Z,31.73
2023-02-14T02:13:17.632Z,31.10
2023-02-14T02:15:59.336Z,30.47
2023-02-14T02:18:36.359Z,31.27
2023-02-14T02:21:47.331Z,29.80
2023-02-14T02:24:26.520Z,29.63
2023-02-14T02:27:18.621Z,28.13
2023-02-14T02:30:32.524Z,29.57
2023-02-14T02:33:34.211Z,28.43
2023-02-14T02:36:50.839Z,28.93
2023-02-14T02:39:40.312Z,28.40
2023-02-14T02:42:22.721Z,27.90
2023-02-14T02:44:57.868Z,28.40
2023-02-14T02:47:35.109Z,27.43
2023-02-14T02:50:29.877Z,31.00
2023-02-14T02:53:08.061Z,29.50
2023-02-14T02:56:08.776Z,29.07
2023-02-14T02:58:40.793Z,28.77
2023-02-14T03:01:15.705Z,27.73
2023-02-14T03:04:17.166Z,26.43
2023-02-14T03:06:46.202Z,29.30
2023-02-14T03:09:52.759Z,27.90
2023-02-14T03:12:45.749Z,27.77
2023-02-14T03:15:22.044Z,27.87
2023-02-14T03:18:00.631Z,28.57
2023-02-14T03:20:37.901Z,27.77
2023-02-14T03:23:15.434Z,27.53
2023-02-14T03:25:53.792Z,27.77
2023-02-14T03:28:30.727Z,28.13
2023-02-14T03:31:05.968Z,27.27
2023-02-14T03:33:44.769Z,28.17
2023-02-14T03:36:18.826Z,28.73
2023-02-14T03:38:52.126Z,28.70
2023-02-14T03:41:25.409Z,28.30
2023-02-14T03:43:57.679Z,28.20
2023-02-14T03:46:30.392Z,28.90
2023-02-14T03:49:02.591Z,28.13
2023-02-14T03:51:34.279Z,28.27
2023-02-14T03:54:05.848Z,27.27
2023-02-14T03:56:44.905Z,27.60
2023-02-14T03:59:17.768Z,29.30
2023-02-14T04:01:50.128Z,27.33
2023-02-14T04:04:22.669Z,29.80
2023-02-14T04:06:51.179Z,27.67
2023-02-14T04:09:19.539Z,29.57
2023-02-14T04:11:50.422Z,27.77
2023-02-14T04:14:19.107Z,28.70
2023-02-14T04:17:19.181Z,28.27
2023-02-14T04:19:47.802Z,29.73
2023-02-14T04:22:16.291Z,28.70
2023-02-14T04:24:45.058Z,29.20
2023-02-14T04:27:17.232Z,28.20
2023-02-14T04:29:47.973Z,29.63
2023-02-14T04:32:18.590Z,27.30
2023-02-14T04:34:47.243Z,29.00
2023-02-14T04:37:17.485Z,27.77
2023-02-14T04:39:45.824Z,28.07
2023-02-14T04:42:16.750Z,27.00
2023-02-14T04:44:45.336Z,27.07
2023-02-14T04:47:14.344Z,27.23
2023-02-14T04:49:45.338Z,27.60
2023-02-14T04:52:14.207Z,26.80
2023-02-14T04:54:43.868Z,28.53
2023-02-14T04:57:12.436Z,28.07
2023-02-14T04:59:44.184Z,27.97
2023-02-14T05:02:12.907Z,25.63
2023-02-14T05:04:41.342Z,26.67
2023-02-14T05:07:09.876Z,28.70
2023-02-14T05:09:40.793Z,28.53
2023-02-14T05:12:09.330Z,26.90
2023-02-14T05:14:37.842Z,27.07
2023-02-14T05:17:07.791Z,27.23
2023-02-14T05:19:36.374Z,27.97
2023-02-14T05:22:05.007Z,28.97
2023-02-14T05:24:33.759Z,29.10
2023-02-14T05:27:02.600Z,28.53
2023-02-14T05:29:31.218Z,28.77
2023-02-14T05:31:59.647Z,29.47
2023-02-14T05:34:29.647Z,27.43
2023-02-14T05:36:58.067Z,27.77
2023-02-14T05:39:26.531Z,27.67
2023-02-14T05:41:57.936Z,27.63
2023-02-14T05:44:27.715Z,26.73
2023-02-14T05:46:56.230Z,26.50
2023-02-14T05:49:24.564Z,25.23
2023-02-14T05:51:54.430Z,25.07
2023-02-14T05:54:22.912Z,25.90
2023-02-14T05:56:51.617Z,27.23
2023-02-14T05:59:20.041Z,25.80
2023-02-14T06:01:48.372Z,27.80
2023-02-14T06:04:16.824Z,27.30
2023-02-14T06:06:48.372Z,26.13
2023-02-14T06:09:19.727Z,26.10
2023-02-14T06:11:48.382Z,28.63
2023-02-14T06:14:16.764Z,31.87
2023-02-14T06:16:45.982Z,29.77
2023-02-14T06:19:14.917Z,26.67
2023-02-14T06:21:44.653Z,26.93
2023-02-14T06:24:14.328Z,28.33
2023-02-14T06:26:44.128Z,29.07
2023-02-14T06:29:12.580Z,28.00
2023-02-14T06:31:41.273Z,26.63
2023-02-14T06:34:09.740Z,26.87
2023-02-14T06:36:38.296Z,26.63
2023-02-14T06:39:06.882Z,27.93
2023-02-14T06:41:35.327Z,26.33
2023-02-14T06:44:05.452Z,26.03
2023-02-14T11:27:34.191Z,18.47
2023-02-14T11:30:02.868Z,18.23
2023-02-14T11:32:37.782Z,18.73
2023-02-14T11:35:08.926Z,19.70
2023-02-14T11:38:28.521Z,18.97
2023-02-14T11:41:19.448Z,18.00
2023-02-14T11:43:52.230Z,17.80
2023-02-14T11:46:30.530Z,17.73
2023-02-14T11:49:02.189Z,18.93
2023-02-14T11:51:34.948Z,17.93
2023-02-14T11:54:05.378Z,18.17
2023-02-14T11:56:50.938Z,19.87
2023-02-14T11:59:33.273Z,19.53
2023-02-14T12:02:05.304Z,19.57
2023-02-14T12:04:45.782Z,19.53
2023-02-14T12:07:26.315Z,20.23
2023-02-14T12:10:18.667Z,20.17
2023-02-14T12:13:19.437Z,21.07
2023-02-14T12:15:58.746Z,19.27
2023-02-14T12:18:39.245Z,19.80
2023-02-14T12:21:41.652Z,19.47
2023-02-14T12:24:20.024Z,19.83
2023-02-14T12:27:08.586Z,21.30
2023-02-14T12:29:57.665Z,19.43
2023-02-14T12:32:30.651Z,19.77
2023-02-14T12:35:03.777Z,19.93
2023-02-14T12:37:42.069Z,19.87
2023-02-14T12:40:20.224Z,19.20
2023-02-14T12:43:14.382Z,19.00
2023-02-14T12:46:23.522Z,19.00
2023-02-14T12:49:18.727Z,19.33
2023-02-14T12:52:09.380Z,19.53
2023-02-14T12:54:55.478Z,19.77
2023-02-14T12:57:38.730Z,18.37
2023-02-14T13:00:24.242Z,17.47
2023-02-14T13:03:19.205Z,17.93
2023-02-14T13:05:59.504Z,18.40
2023-02-14T13:08:49.173Z,17.03
2023-02-14T13:11:30.215Z,14.73
2023-02-14T13:14:06.550Z,13.93
2023-02-14T13:16:44.655Z,13.30
2023-02-14T13:19:26.020Z,13.40
2023-02-14T13:21:59.705Z,13.87
2023-02-14T13:24:32.792Z,13.17
2023-02-14T13:27:03.260Z,14.63
2023-02-14T13:29:38.386Z,16.20
2023-02-14T13:32:07.297Z,17.20
2023-02-14T13:34:40.459Z,16.90
2023-02-14T13:37:13.970Z,16.90
2023-02-14T13:39:46.836Z,17.73
2023-02-14T13:42:56.506Z,17.63
2023-02-14T13:45:58.944Z,17.97
2023-02-14T13:48:28.581Z,18.50
2023-02-14T13:51:00.097Z,17.67
2023-02-14T13:53:35.428Z,17.87
2023-02-14T13:56:07.620Z,17.77
2023-02-14T13:58:37.735Z,17.30
2023-02-14T14:01:31.942Z,16.20
2023-02-14T14:04:02.457Z,15.43
2023-02-14T14:06:31.641Z,15.93
2023-02-14T14:09:00.228Z,15.63
2023-02-14T14:11:56.132Z,14.60
2023-02-14T14:14:37.567Z,13.83
2023-02-14T14:17:23.293Z,14.30
2023-02-14T14:19:52.446Z,14.70
2023-02-14T14:22:22.836Z,14.50
2023-02-14T14:25:00.658Z,16.17
2023-02-14T14:27:33.940Z,16.07
2023-02-14T14:30:06.237Z,16.10
2023-02-14T14:32:36.444Z,17.13
2023-02-14T14:35:08.357Z,16.27
2023-02-14T14:37:46.610Z,16.30
2023-02-14T14:40:25.043Z,15.97
2023-02-14T14:42:55.438Z,17.33
2023-02-14T14:45:28.046Z,17.63
2023-02-14T14:47:59.166Z,16.67
2023-02-14T14:50:30.202Z,15.67
2023-02-14T14:53:04.119Z,16.63
2023-02-14T14:55:34.556Z,15.80
2023-02-14T14:58:05.345Z,15.70
2023-02-14T15:00:36.644Z,15.87
2023-02-14T15:03:11.606Z,15.27
2023-02-14T15:05:42.887Z,16.40
2023-02-14T15:08:17.201Z,17.33
2023-02-14T15:10:50.992Z,16.90
2023-02-14T15:13:38.407Z,16.90
2023-02-14T15:16:12.090Z,17.30
2023-02-14T15:18:41.060Z,16.53
2023-02-14T15:21:12.966Z,16.10
2023-02-14T15:23:45.245Z,16.37
2023-02-14T15:26:20.093Z,17.00
2023-02-14T15:28:57.790Z,17.43
2023-02-14T15:31:53.983Z,16.47
2023-02-14T15:34:26.163Z,16.80
2023-02-14T15:36:59.348Z,17.77
2023-02-14T15:39:35.369Z,17.00
2023-02-14T15:42:04.888Z,17.07
2023-02-14T15:44:33.860Z,16.43
2023-02-14T15:47:06.899Z,17.43
2023-02-14T15:49:41.099Z,16.73
2023-02-14T15:52:14.229Z,16.03
2023-02-14T15:54:46.429Z,16.13
2023-02-14T15:57:25.045Z,16.37
2023-02-14T15:59:54.090Z,15.83
2023-02-14T16:02:31.160Z,15.83
2023-02-14T16:05:07.386Z,15.77
2023-02-14T16:07:36.220Z,15.67
2023-02-14T16:10:32.594Z,15.40
2023-02-14T16:13:03.580Z,15.80
2023-02-14T16:15:33.317Z,14.70
2023-02-14T16:18:08.205Z,15.40
2023-02-14T16:20:43.327Z,16.73
2023-02-14T16:59:23.716Z,13.93
2023-02-14T17:01:52.657Z,14.43
2023-02-14T17:04:21.167Z,14.10
2023-02-14T17:07:01.596Z,15.17
2023-02-14T17:09:33.315Z,16.00
2023-02-14T17:12:04.622Z,16.13
2023-02-14T17:14:38.246Z,15.93
2023-02-14T17:17:06.692Z,16.47
2023-02-14T17:19:35.275Z,15.87
2023-02-14T17:23:19.465Z,17.03
2023-02-14T17:25:48.079Z,18.50
2023-02-14T17:28:16.589Z,20.07
2023-02-14T17:30:47.542Z,19.73
2023-02-14T17:34:11.951Z,18.27
2023-02-14T17:36:40.956Z,18.07
2023-02-14T17:39:09.796Z,17.17
2023-02-14T17:41:38.334Z,18.10
2023-02-14T17:44:24.465Z,18.37
2023-02-14T17:46:59.395Z,18.07
2023-02-14T17:49:28.136Z,18.37
2023-02-14T17:51:57.057Z,18.33
2023-02-14T17:54:25.794Z,18.60
2023-02-14T17:56:54.319Z,20.13
2023-02-14T17:59:22.790Z,24.70
2023-02-14T18:01:51.359Z,25.17
2023-02-14T18:04:21.438Z,24.40
2023-02-14T18:06:58.670Z,26.00
2023-02-14T18:09:27.366Z,25.60
2023-02-14T18:11:59.297Z,23.93
2023-02-14T18:14:29.340Z,23.60
2023-02-14T18:17:00.133Z,23.93
2023-02-14T18:20:21.001Z,24.23
2023-02-14T18:22:51.366Z,23.27
2023-02-14T18:25:22.338Z,23.67
2023-02-14T18:27:50.908Z,25.23
2023-02-14T18:31:14.914Z,36.80
2023-02-14T18:33:45.043Z,27.90
2023-02-14T18:36:15.631Z,27.17
2023-02-14T18:39:42.567Z,25.13
2023-02-14T18:42:12.697Z,28.10
2023-02-14T18:44:41.404Z,28.67
2023-02-14T18:47:10.259Z,45.43
2023-02-14T18:49:38.764Z,37.03
2023-02-14T18:52:07.407Z,32.70
2023-02-14T18:54:36.149Z,32.60
2023-02-14T18:57:04.964Z,29.47
2023-02-14T18:59:35.201Z,29.77
2023-02-14T19:02:03.767Z,33.17
2023-02-14T19:04:32.671Z,30.27
2023-02-14T19:07:01.283Z,30.20
2023-02-14T19:09:30.567Z,30.80
2023-02-14T19:12:00.168Z,30.87
2023-02-14T19:14:35.579Z,31.17
2023-02-14T19:17:06.615Z,33.53
2023-02-14T19:28:42.869Z,36.17
2023-02-14T19:36:21.027Z,37.80
2023-02-14T19:39:48.217Z,37.30
2023-02-14T19:43:40.633Z,35.30
2023-02-14T19:52:28.441Z,34.37
2023-02-14T19:56:09.165Z,33.50
2023-02-14T20:22:12.200Z,25.47
2023-02-14T20:30:09.526Z,27.40
2023-02-14T20:34:10.045Z,30.17
2023-02-14T21:37:37.515Z,24.30
2023-02-14T22:31:10.229Z,48.53
2023-02-14T22:33:41.864Z,47.13
2023-02-14T22:36:12.259Z,48.87
2023-02-14T22:44:21.200Z,45.13
2023-02-14T22:46:51.249Z,43.87
2023-02-14T22:49:19.716Z,46.07
2023-02-14T22:51:48.200Z,41.93
2023-02-14T22:54:17.909Z,42.23
2023-02-14T22:56:47.981Z,41.63
2023-02-14T22:59:18.142Z,40.27
2023-02-14T23:01:46.830Z,38.30
2023-02-14T23:04:21.522Z,36.30
2023-02-14T23:06:51.805Z,36.23
2023-02-14T23:09:21.179Z,37.57
2023-02-14T23:11:52.564Z,35.57
2023-02-14T23:14:38.525Z,36.20
2023-02-14T23:17:21.106Z,37.67
2023-02-14T23:20:08.154Z,37.77
2023-02-14T23:22:38.263Z,36.93
2023-02-14T23:25:08.907Z,38.70
2023-02-14T23:27:39.354Z,37.23
2023-02-14T23:30:11.091Z,37.03
2023-02-14T23:32:39.668Z,36.00
2023-02-14T23:35:10.402Z,36.87
2023-02-14T23:37:39.202Z,37.77
2023-02-14T23:40:09.852Z,35.93
2023-02-14T23:42:38.707Z,36.70
2023-02-14T23:45:25.346Z,37.20
2023-02-14T23:47:53.878Z,37.33
2023-02-14T23:50:23.576Z,39.17
2023-02-14T23:52:52.604Z,38.23
2023-02-14T23:55:21.092Z,36.53
2023-02-14T23:57:49.609Z,38.87
